sensor_id;sensor_type;location;lat;lon;timestamp;P1;durP1;ratioP1;P2;durP2;ratioP2
13368;SDS011;6753;52.520;13.450;2023-02-28T00:00:02;1076.00;;;920.65;;
13368;SDS011;6753;52.520;13.450;2023-02-28T00:00:20;1085.05;;;923.90;;
13368;SDS011;6753;52.520;13.450;2023-02-28T00:00:32;1079.18;;;920.17;;
13368;SDS011;6753;52.520;13.450;2023-02-28T00:00:43;1079.07;;;919.85;;
13368;SDS011;6753;52.520;13.450;2023-02-28T00:00:54;1080.57;;;920.13;;
13368;SDS011;6753;52.520;13.450;2023-02-28T00:01:05;1068.55;;;914.53;;
13368;SDS011;6753;52.520;13.450;2023-02-28T00:01:16;1046.57;;;902.25;;
13368;SDS011;6753;52.520;13.450;2023-02-28T00:01:27;1034.85;;;894.15;;
13368;SDS011;6753;52.520;13.450;2023-02-28T00:01:37;1020.25;;;885.17;;
13368;SDS011;6753;52.520;13.450;2023-02-28T00:01:49;1008.78;;;878.22;;
13368;SDS011;6753;52.520;13.450;2023-02-28T00:02:00;999.03;;;873.03;;
13368;SDS011;6753;52.520;13.450;2023-02-28T00:02:11;998.10;;;871.88;;
13368;SDS011;6753;52.520;13.450;2023-02-28T00:02:21;996.60;;;871.30;;
13368;SDS011;6753;52.520;13.450;2023-02-28T00:02:32;992.35;;;869.88;;
13368;SDS011;6753;52.520;13.450;2023-02-28T00:02:43;992.33;;;871.15;;
13368;SDS011;6753;52.520;13.450;2023-02-28T00:02:57;986.35;;;867.40;;
13368;SDS011;6753;52.520;13.450;2023-02-28T00:03:08;977.80;;;861.58;;
13368;SDS011;6753;52.520;13.450;2023-02-28T00:03:20;965.15;;;852.75;;
13368;SDS011;6753;52.520;13.450;2023-02-28T00:03:30;958.03;;;847.47;;
13368;SDS011;6753;52.520;13.450;2023-02-28T00:03:45;937.42;;;833.40;;
13368;SDS011;6753;52.520;13.450;2023-02-28T00:03:55;922.85;;;821.13;;
13368;SDS011;6753;52.520;13.450;2023-02-28T00:04:06;912.00;;;811.72;;
13368;SDS011;6753;52.520;13.450;2023-02-28T00:04:19;905.35;;;806.03;;
13368;SDS011;6753;52.520;13.450;2023-02-28T00:04:30;899.67;;;801.03;;
13368;SDS011;6753;52.520;13.450;2023-02-28T00:04:40;893.58;;;795.78;;
13368;SDS011;6753;52.520;13.450;2023-02-28T00:04:51;889.85;;;792.25;;
13368;SDS011;6753;52.520;13.450;2023-02-28T00:05:11;890.67;;;793.03;;
13368;SDS011;6753;52.520;13.450;2023-02-28T00:05:24;886.25;;;789.25;;
13368;SDS011;6753;52.520;13.450;2023-02-28T00:05:36;880.28;;;783.60;;
13368;SDS011;6753;52.520;13.450;2023-02-28T00:05:47;873.10;;;777.60;;
13368;SDS011;6753;52.520;13.450;2023-02-28T00:05:57;868.47;;;773.55;;
13368;SDS011;6753;52.520;13.450;2023-02-28T00:06:08;859.53;;;765.83;;
13368;SDS011;6753;52.520;13.450;2023-02-28T00:06:20;851.83;;;759.25;;
13368;SDS011;6753;52.520;13.450;2023-02-28T00:06:31;851.83;;;759.80;;
13368;SDS011;6753;52.520;13.450;2023-02-28T00:06:42;853.50;;;761.40;;
13368;SDS011;6753;52.520;13.450;2023-02-28T00:06:53;852.80;;;760.70;;
13368;SDS011;6753;52.520;13.450;2023-02-28T00:07:03;843.60;;;752.55;;
13368;SDS011;6753;52.520;13.450;2023-02-28T00:07:14;839.83;;;749.22;;
13368;SDS011;6753;52.520;13.450;2023-02-28T00:07:25;838.67;;;748.20;;
13368;SDS011;6753;52.520;13.450;2023-02-28T00:07:36;845.28;;;753.65;;
13368;SDS011;6753;52.520;13.450;2023-02-28T00:07:48;840.78;;;749.72;;
13368;SDS011;6753;52.520;13.450;2023-02-28T00:07:59;838.90;;;748.30;;
13368;SDS011;6753;52.520;13.450;2023-02-28T00:08:10;836.05;;;745.55;;
13368;SDS011;6753;52.520;13.450;2023-02-28T00:08:21;832.17;;;741.92;;
13368;SDS011;6753;52.520;13.450;2023-02-28T00:08:32;818.17;;;729.63;;
13368;SDS011;6753;52.520;13.450;2023-02-28T00:08:43;809.13;;;722.00;;
13368;SDS011;6753;52.520;13.450;2023-02-28T00:08:55;808.90;;;721.83;;
13368;SDS011;6753;52.520;13.450;2023-02-28T00:09:06;813.22;;;725.55;;
13368;SDS011;6753;52.520;13.450;2023-02-28T00:09:17;815.67;;;728.03;;
13368;SDS011;6753;52.520;13.450;2023-02-28T00:09:27;812.58;;;725.30;;
13368;SDS011;6753;52.520;13.450;2023-02-28T00:09:38;804.07;;;717.37;;
13368;SDS011;6753;52.520;13.450;2023-02-28T00:09:49;798.25;;;712.05;;
13368;SDS011;6753;52.520;13.450;2023-02-28T00:10:00;783.67;;;698.95;;
13368;SDS011;6753;52.520;13.450;2023-02-28T00:10:11;770.53;;;687.28;;
13368;SDS011;6753;52.520;13.450;2023-02-28T00:10:24;759.25;;;677.17;;
13368;SDS011;6753;52.520;13.450;2023-02-28T00:10:39;755.33;;;673.67;;
13368;SDS011;6753;52.520;13.450;2023-02-28T00:10:49;758.35;;;676.28;;
13368;SDS011;6753;52.520;13.450;2023-02-28T00:11:00;757.50;;;675.33;;
13368;SDS011;6753;52.520;13.450;2023-02-28T00:11:13;751.75;;;670.08;;
13368;SDS011;6753;52.520;13.450;2023-02-28T00:11:24;748.50;;;667.20;;
13368;SDS011;6753;52.520;13.450;2023-02-28T00:11:35;750.85;;;669.55;;
13368;SDS011;6753;52.520;13.450;2023-02-28T00:11:47;743.33;;;662.95;;
13368;SDS011;6753;52.520;13.450;2023-02-28T00:11:59;736.78;;;657.38;;
13368;SDS011;6753;52.520;13.450;2023-02-28T00:12:10;741.70;;;661.92;;
13368;SDS011;6753;52.520;13.450;2023-02-28T00:12:21;740.87;;;661.00;;
13368;SDS011;6753;52.520;13.450;2023-02-28T00:12:31;728.72;;;650.00;;
13368;SDS011;6753;52.520;13.450;2023-02-28T00:12:42;719.25;;;641.20;;
13368;SDS011;6753;52.520;13.450;2023-02-28T00:12:53;713.67;;;636.03;;
13368;SDS011;6753;52.520;13.450;2023-02-28T00:13:10;696.72;;;620.65;;
13368;SDS011;6753;52.520;13.450;2023-02-28T00:13:21;688.92;;;613.92;;
13368;SDS011;6753;52.520;13.450;2023-02-28T00:13:33;689.50;;;614.58;;
13368;SDS011;6753;52.520;13.450;2023-02-28T00:13:45;688.60;;;613.85;;
13368;SDS011;6753;52.520;13.450;2023-02-28T00:13:57;689.25;;;614.63;;
13368;SDS011;6753;52.520;13.450;2023-02-28T00:14:09;693.10;;;618.33;;
13368;SDS011;6753;52.520;13.450;2023-02-28T00:14:19;692.13;;;617.47;;
13368;SDS011;6753;52.520;13.450;2023-02-28T00:14:30;688.35;;;614.10;;
13368;SDS011;6753;52.520;13.450;2023-02-28T00:14:41;680.13;;;606.78;;
13368;SDS011;6753;52.520;13.450;2023-02-28T00:14:52;669.90;;;597.50;;
13368;SDS011;6753;52.520;13.450;2023-02-28T00:15:05;654.63;;;583.47;;
13368;SDS011;6753;52.520;13.450;2023-02-28T00:15:16;645.30;;;574.72;;
13368;SDS011;6753;52.520;13.450;2023-02-28T00:15:29;642.53;;;572.25;;
13368;SDS011;6753;52.520;13.450;2023-02-28T00:15:40;643.45;;;573.17;;
13368;SDS011;6753;52.520;13.450;2023-02-28T00:15:58;651.43;;;580.43;;
13368;SDS011;6753;52.520;13.450;2023-02-28T00:16:11;671.42;;;598.63;;
13368;SDS011;6753;52.520;13.450;2023-02-28T00:16:23;675.13;;;602.05;;
13368;SDS011;6753;52.520;13.450;2023-02-28T00:16:34;671.63;;;598.70;;
13368;SDS011;6753;52.520;13.450;2023-02-28T00:16:45;667.15;;;594.53;;
13368;SDS011;6753;52.520;13.450;2023-02-28T00:16:56;667.38;;;594.70;;
13368;SDS011;6753;52.520;13.450;2023-02-28T00:17:07;655.58;;;584.15;;
13368;SDS011;6753;52.520;13.450;2023-02-28T00:17:18;646.70;;;576.00;;
13368;SDS011;6753;52.520;13.450;2023-02-28T00:17:30;639.47;;;569.55;;
13368;SDS011;6753;52.520;13.450;2023-02-28T00:17:42;635.63;;;565.97;;
13368;SDS011;6753;52.520;13.450;2023-02-28T00:17:54;619.55;;;551.33;;
13368;SDS011;6753;52.520;13.450;2023-02-28T00:18:05;605.80;;;538.70;;
13368;SDS011;6753;52.520;13.450;2023-02-28T00:18:16;598.65;;;532.30;;
13368;SDS011;6753;52.520;13.450;2023-02-28T00:18:28;588.60;;;520.15;;
13368;SDS011;6753;52.520;13.450;2023-02-28T00:18:38;582.75;;;512.38;;
13368;SDS011;6753;52.520;13.450;2023-02-28T00:18:50;578.03;;;505.75;;
13368;SDS011;6753;52.520;13.450;2023-02-28T00:19:01;577.38;;;504.42;;
13368;SDS011;6753;52.520;13.450;2023-02-28T00:19:12;574.80;;;500.45;;
13368;SDS011;6753;52.520;13.450;2023-02-28T00:19:23;571.63;;;497.23;;
13368;SDS011;6753;52.520;13.450;2023-02-28T00:19:34;567.42;;;492.13;;
13368;SDS011;6753;52.520;13.450;2023-02-28T00:19:44;566.42;;;489.40;;
13368;SDS011;6753;52.520;13.450;2023-02-28T00:19:55;563.07;;;487.27;;
13368;SDS011;6753;52.520;13.450;2023-02-28T00:20:12;556.67;;;479.10;;
13368;SDS011;6753;52.520;13.450;2023-02-28T00:20:23;555.30;;;476.42;;
13368;SDS011;6753;52.520;13.450;2023-02-28T00:20:34;552.05;;;473.75;;
13368;SDS011;6753;52.520;13.450;2023-02-28T00:20:45;549.08;;;472.20;;
13368;SDS011;6753;52.520;13.450;2023-02-28T00:20:56;546.80;;;467.92;;
13368;SDS011;6753;52.520;13.450;2023-02-28T00:21:07;544.05;;;464.23;;
13368;SDS011;6753;52.520;13.450;2023-02-28T00:21:18;539.93;;;460.73;;
13368;SDS011;6753;52.520;13.450;2023-02-28T00:21:30;537.20;;;458.77;;
13368;SDS011;6753;52.520;13.450;2023-02-28T00:21:41;532.97;;;454.02;;
13368;SDS011;6753;52.520;13.450;2023-02-28T00:21:52;529.92;;;450.33;;
13368;SDS011;6753;52.520;13.450;2023-02-28T00:22:03;530.35;;;452.30;;
13368;SDS011;6753;52.520;13.450;2023-02-28T00:22:14;533.65;;;454.83;;
13368;SDS011;6753;52.520;13.450;2023-02-28T00:22:25;538.03;;;457.85;;
13368;SDS011;6753;52.520;13.450;2023-02-28T00:22:36;545.97;;;466.88;;
13368;SDS011;6753;52.520;13.450;2023-02-28T00:22:49;553.22;;;475.05;;
13368;SDS011;6753;52.520;13.450;2023-02-28T00:23:02;558.72;;;481.50;;
13368;SDS011;6753;52.520;13.450;2023-02-28T00:23:13;562.60;;;488.40;;
13368;SDS011;6753;52.520;13.450;2023-02-28T00:23:24;564.95;;;492.25;;
13368;SDS011;6753;52.520;13.450;2023-02-28T00:23:35;566.13;;;495.98;;
13368;SDS011;6753;52.520;13.450;2023-02-28T00:23:47;567.88;;;500.48;;
13368;SDS011;6753;52.520;13.450;2023-02-28T00:23:59;566.50;;;499.63;;
13368;SDS011;6753;52.520;13.450;2023-02-28T00:24:09;564.72;;;498.48;;
13368;SDS011;6753;52.520;13.450;2023-02-28T00:24:20;560.55;;;493.13;;
13368;SDS011;6753;52.520;13.450;2023-02-28T00:24:31;551.40;;;481.23;;
13368;SDS011;6753;52.520;13.450;2023-02-28T00:24:42;541.93;;;467.90;;
13368;SDS011;6753;52.520;13.450;2023-02-28T00:24:52;537.33;;;462.40;;
13368;SDS011;6753;52.520;13.450;2023-02-28T00:25:03;535.72;;;460.52;;
13368;SDS011;6753;52.520;13.450;2023-02-28T00:25:17;540.05;;;465.15;;
13368;SDS011;6753;52.520;13.450;2023-02-28T00:25:30;547.83;;;474.73;;
13368;SDS011;6753;52.520;13.450;2023-02-28T00:25:41;554.03;;;483.45;;
13368;SDS011;6753;52.520;13.450;2023-02-28T00:25:51;557.35;;;487.48;;
13368;SDS011;6753;52.520;13.450;2023-02-28T00:26:02;560.45;;;491.08;;
13368;SDS011;6753;52.520;13.450;2023-02-28T00:26:14;556.15;;;486.80;;
13368;SDS011;6753;52.520;13.450;2023-02-28T00:26:24;550.22;;;480.40;;
13368;SDS011;6753;52.520;13.450;2023-02-28T00:26:35;545.53;;;474.00;;
13368;SDS011;6753;52.520;13.450;2023-02-28T00:26:46;544.87;;;474.30;;
13368;SDS011;6753;52.520;13.450;2023-02-28T00:26:58;542.30;;;470.95;;
13368;SDS011;6753;52.520;13.450;2023-02-28T00:27:08;535.65;;;461.33;;
13368;SDS011;6753;52.520;13.450;2023-02-28T00:27:19;535.15;;;459.80;;
13368;SDS011;6753;52.520;13.450;2023-02-28T00:27:30;535.87;;;460.60;;
13368;SDS011;6753;52.520;13.450;2023-02-28T00:27:41;532.50;;;455.65;;
13368;SDS011;6753;52.520;13.450;2023-02-28T00:27:52;528.15;;;447.58;;
13368;SDS011;6753;52.520;13.450;2023-02-28T00:28:03;524.22;;;441.90;;
13368;SDS011;6753;52.520;13.450;2023-02-28T00:28:15;520.85;;;437.55;;
13368;SDS011;6753;52.520;13.450;2023-02-28T00:28:26;520.45;;;438.33;;
13368;SDS011;6753;52.520;13.450;2023-02-28T00:28:38;519.50;;;436.98;;
13368;SDS011;6753;52.520;13.450;2023-02-28T00:28:48;523.72;;;442.23;;
13368;SDS011;6753;52.520;13.450;2023-02-28T00:29:02;537.00;;;458.35;;
13368;SDS011;6753;52.520;13.450;2023-02-28T00:29:13;543.15;;;467.75;;
13368;SDS011;6753;52.520;13.450;2023-02-28T00:29:24;547.63;;;472.02;;
13368;SDS011;6753;52.520;13.450;2023-02-28T00:29:34;551.17;;;475.85;;
13368;SDS011;6753;52.520;13.450;2023-02-28T00:29:46;550.08;;;475.77;;
13368;SDS011;6753;52.520;13.450;2023-02-28T00:29:58;541.67;;;465.33;;
13368;SDS011;6753;52.520;13.450;2023-02-28T00:30:10;537.22;;;457.27;;
13368;SDS011;6753;52.520;13.450;2023-02-28T00:30:22;529.55;;;447.83;;
13368;SDS011;6753;52.520;13.450;2023-02-28T00:30:36;524.97;;;442.75;;
13368;SDS011;6753;52.520;13.450;2023-02-28T00:30:47;525.65;;;442.65;;
13368;SDS011;6753;52.520;13.450;2023-02-28T00:30:58;534.30;;;455.35;;
13368;SDS011;6753;52.520;13.450;2023-02-28T00:31:09;542.78;;;467.50;;
13368;SDS011;6753;52.520;13.450;2023-02-28T00:31:21;546.47;;;472.17;;
13368;SDS011;6753;52.520;13.450;2023-02-28T00:31:32;549.53;;;475.10;;
13368;SDS011;6753;52.520;13.450;2023-02-28T00:31:43;549.25;;;475.45;;
13368;SDS011;6753;52.520;13.450;2023-02-28T00:31:53;544.53;;;469.43;;
13368;SDS011;6753;52.520;13.450;2023-02-28T00:32:04;541.00;;;464.08;;
13368;SDS011;6753;52.520;13.450;2023-02-28T00:32:16;545.85;;;467.73;;
13368;SDS011;6753;52.520;13.450;2023-02-28T00:32:28;550.20;;;473.02;;
13368;SDS011;6753;52.520;13.450;2023-02-28T00:32:39;554.80;;;478.80;;
13368;SDS011;6753;52.520;13.450;2023-02-28T00:32:52;559.88;;;484.42;;
13368;SDS011;6753;52.520;13.450;2023-02-28T00:33:02;559.95;;;485.45;;
13368;SDS011;6753;52.520;13.450;2023-02-28T00:33:13;557.72;;;483.50;;
13368;SDS011;6753;52.520;13.450;2023-02-28T00:33:24;554.65;;;480.30;;
13368;SDS011;6753;52.520;13.450;2023-02-28T00:33:35;552.20;;;478.00;;
13368;SDS011;6753;52.520;13.450;2023-02-28T00:33:45;550.45;;;476.63;;
13368;SDS011;6753;52.520;13.450;2023-02-28T00:33:57;549.40;;;475.27;;
13368;SDS011;6753;52.520;13.450;2023-02-28T00:34:08;549.80;;;473.90;;
13368;SDS011;6753;52.520;13.450;2023-02-28T00:34:18;550.80;;;474.10;;
13368;SDS011;6753;52.520;13.450;2023-02-28T00:34:29;551.17;;;474.25;;
13368;SDS011;6753;52.520;13.450;2023-02-28T00:34:43;552.03;;;476.77;;
13368;SDS011;6753;52.520;13.450;2023-02-28T00:34:54;555.88;;;478.05;;
13368;SDS011;6753;52.520;13.450;2023-02-28T00:35:05;551.10;;;474.10;;
13368;SDS011;6753;52.520;13.450;2023-02-28T00:35:17;549.42;;;471.83;;
13368;SDS011;6753;52.520;13.450;2023-02-28T00:35:29;547.05;;;467.90;;
13368;SDS011;6753;52.520;13.450;2023-02-28T00:35:40;544.30;;;464.17;;
13368;SDS011;6753;52.520;13.450;2023-02-28T00:35:51;539.92;;;461.90;;
13368;SDS011;6753;52.520;13.450;2023-02-28T00:36:02;543.20;;;464.17;;
13368;SDS011;6753;52.520;13.450;2023-02-28T00:36:14;542.90;;;463.83;;
13368;SDS011;6753;52.520;13.450;2023-02-28T00:36:25;543.88;;;465.70;;
13368;SDS011;6753;52.520;13.450;2023-02-28T00:36:36;545.90;;;466.47;;
13368;SDS011;6753;52.520;13.450;2023-02-28T00:36:47;544.60;;;464.63;;
13368;SDS011;6753;52.520;13.450;2023-02-28T00:36:58;542.10;;;461.83;;
13368;SDS011;6753;52.520;13.450;2023-02-28T00:37:10;541.63;;;461.23;;
13368;SDS011;6753;52.520;13.450;2023-02-28T00:37:22;541.25;;;462.98;;
13368;SDS011;6753;52.520;13.450;2023-02-28T00:37:32;541.88;;;463.88;;
13368;SDS011;6753;52.520;13.450;2023-02-28T00:37:43;543.72;;;465.45;;
13368;SDS011;6753;52.520;13.450;2023-02-28T00:37:54;541.77;;;464.40;;
13368;SDS011;6753;52.520;13.450;2023-02-28T00:38:05;541.15;;;463.45;;
13368;SDS011;6753;52.520;13.450;2023-02-28T00:38:16;537.95;;;459.10;;
13368;SDS011;6753;52.520;13.450;2023-02-28T00:38:28;535.70;;;455.30;;
13368;SDS011;6753;52.520;13.450;2023-02-28T00:38:39;534.37;;;452.53;;
13368;SDS011;6753;52.520;13.450;2023-02-28T00:38:51;537.40;;;455.95;;
13368;SDS011;6753;52.520;13.450;2023-02-28T00:39:02;540.15;;;458.08;;
13368;SDS011;6753;52.520;13.450;2023-02-28T00:39:12;541.20;;;460.92;;
13368;SDS011;6753;52.520;13.450;2023-02-28T00:39:23;541.43;;;462.40;;
13368;SDS011;6753;52.520;13.450;2023-02-28T00:39:34;539.92;;;462.83;;
13368;SDS011;6753;52.520;13.450;2023-02-28T00:39:46;537.05;;;460.98;;
13368;SDS011;6753;52.520;13.450;2023-02-28T00:39:57;534.78;;;458.42;;
13368;SDS011;6753;52.520;13.450;2023-02-28T00:40:09;532.50;;;456.05;;
13368;SDS011;6753;52.520;13.450;2023-02-28T00:40:22;532.95;;;455.65;;
13368;SDS011;6753;52.520;13.450;2023-02-28T00:40:32;534.27;;;457.70;;
13368;SDS011;6753;52.520;13.450;2023-02-28T00:40:43;536.28;;;458.40;;
13368;SDS011;6753;52.520;13.450;2023-02-28T00:40:54;538.60;;;460.42;;
13368;SDS011;6753;52.520;13.450;2023-02-28T00:41:05;540.10;;;462.30;;
13368;SDS011;6753;52.520;13.450;2023-02-28T00:41:17;540.92;;;461.75;;
13368;SDS011;6753;52.520;13.450;2023-02-28T00:41:29;541.38;;;462.35;;
13368;SDS011;6753;52.520;13.450;2023-02-28T00:41:39;540.00;;;460.73;;
13368;SDS011;6753;52.520;13.450;2023-02-28T00:41:50;539.45;;;460.20;;
13368;SDS011;6753;52.520;13.450;2023-02-28T00:42:01;537.70;;;460.20;;
13368;SDS011;6753;52.520;13.450;2023-02-28T00:42:12;536.80;;;459.30;;
13368;SDS011;6753;52.520;13.450;2023-02-28T00:42:23;532.88;;;457.17;;
13368;SDS011;6753;52.520;13.450;2023-02-28T00:42:35;532.25;;;455.35;;
13368;SDS011;6753;52.520;13.450;2023-02-28T00:42:46;530.33;;;456.40;;
13368;SDS011;6753;52.520;13.450;2023-02-28T00:42:57;530.53;;;455.83;;
13368;SDS011;6753;52.520;13.450;2023-02-28T00:43:08;532.05;;;454.50;;
13368;SDS011;6753;52.520;13.450;2023-02-28T00:43:20;532.70;;;455.33;;
13368;SDS011;6753;52.520;13.450;2023-02-28T00:43:32;532.90;;;456.98;;
13368;SDS011;6753;52.520;13.450;2023-02-28T00:43:43;533.55;;;455.42;;
13368;SDS011;6753;52.520;13.450;2023-02-28T00:43:54;533.07;;;456.03;;
13368;SDS011;6753;52.520;13.450;2023-02-28T00:44:04;532.30;;;456.40;;
13368;SDS011;6753;52.520;13.450;2023-02-28T00:44:15;531.67;;;455.23;;
13368;SDS011;6753;52.520;13.450;2023-02-28T00:44:26;532.97;;;454.70;;
13368;SDS011;6753;52.520;13.450;2023-02-28T00:44:38;533.63;;;453.60;;
13368;SDS011;6753;52.520;13.450;2023-02-28T00:44:49;532.20;;;451.60;;
13368;SDS011;6753;52.520;13.450;2023-02-28T00:45:00;530.40;;;448.30;;
13368;SDS011;6753;52.520;13.450;2023-02-28T00:45:11;528.95;;;447.30;;
13368;SDS011;6753;52.520;13.450;2023-02-28T00:45:22;528.40;;;447.50;;
13368;SDS011;6753;52.520;13.450;2023-02-28T00:45:32;526.97;;;446.00;;
13368;SDS011;6753;52.520;13.450;2023-02-28T00:45:43;526.60;;;446.17;;
13368;SDS011;6753;52.520;13.450;2023-02-28T00:45:54;526.17;;;446.60;;
13368;SDS011;6753;52.520;13.450;2023-02-28T00:46:06;525.13;;;446.13;;
13368;SDS011;6753;52.520;13.450;2023-02-28T00:46:17;525.33;;;445.83;;
13368;SDS011;6753;52.520;13.450;2023-02-28T00:46:27;526.08;;;447.10;;
13368;SDS011;6753;52.520;13.450;2023-02-28T00:46:38;528.47;;;448.52;;
13368;SDS011;6753;52.520;13.450;2023-02-28T00:46:49;528.83;;;448.70;;
13368;SDS011;6753;52.520;13.450;2023-02-28T00:47:00;529.80;;;449.60;;
13368;SDS011;6753;52.520;13.450;2023-02-28T00:47:10;530.70;;;449.42;;
13368;SDS011;6753;52.520;13.450;2023-02-28T00:47:21;530.77;;;449.57;;
13368;SDS011;6753;52.520;13.450;2023-02-28T00:47:33;526.80;;;447.60;;
13368;SDS011;6753;52.520;13.450;2023-02-28T00:47:44;529.30;;;449.08;;
13368;SDS011;6753;52.520;13.450;2023-02-28T00:47:56;528.95;;;449.35;;
13368;SDS011;6753;52.520;13.450;2023-02-28T00:48:07;531.20;;;450.63;;
13368;SDS011;6753;52.520;13.450;2023-02-28T00:48:17;531.05;;;450.13;;
13368;SDS011;6753;52.520;13.450;2023-02-28T00:48:29;528.65;;;448.17;;
13368;SDS011;6753;52.520;13.450;2023-02-28T00:48:40;526.95;;;446.10;;
13368;SDS011;6753;52.520;13.450;2023-02-28T00:48:51;525.53;;;446.08;;
13368;SDS011;6753;52.520;13.450;2023-02-28T00:49:02;524.03;;;444.80;;
13368;SDS011;6753;52.520;13.450;2023-02-28T00:49:13;523.15;;;445.40;;
13368;SDS011;6753;52.520;13.450;2023-02-28T00:49:24;523.35;;;447.35;;
13368;SDS011;6753;52.520;13.450;2023-02-28T00:49:35;523.42;;;448.23;;
13368;SDS011;6753;52.520;13.450;2023-02-28T00:49:46;524.58;;;448.65;;
13368;SDS011;6753;52.520;13.450;2023-02-28T00:49:56;524.23;;;447.30;;
13368;SDS011;6753;52.520;13.450;2023-02-28T00:50:08;523.53;;;446.90;;
13368;SDS011;6753;52.520;13.450;2023-02-28T00:50:20;524.70;;;446.08;;
13368;SDS011;6753;52.520;13.450;2023-02-28T00:50:31;524.05;;;444.48;;
13368;SDS011;6753;52.520;13.450;2023-02-28T00:50:42;523.70;;;443.58;;
13368;SDS011;6753;52.520;13.450;2023-02-28T00:50:53;523.10;;;444.07;;
13368;SDS011;6753;52.520;13.450;2023-02-28T00:51:04;524.60;;;443.80;;
13368;SDS011;6753;52.520;13.450;2023-02-28T00:51:15;522.60;;;442.48;;
13368;SDS011;6753;52.520;13.450;2023-02-28T00:51:26;523.97;;;443.95;;
13368;SDS011;6753;52.520;13.450;2023-02-28T00:51:37;525.53;;;445.63;;
13368;SDS011;6753;52.520;13.450;2023-02-28T00:51:47;525.35;;;445.10;;
13368;SDS011;6753;52.520;13.450;2023-02-28T00:52:00;524.30;;;444.77;;
13368;SDS011;6753;52.520;13.450;2023-02-28T00:52:10;524.55;;;444.77;;
13368;SDS011;6753;52.520;13.450;2023-02-28T00:52:21;524.42;;;445.90;;
13368;SDS011;6753;52.520;13.450;2023-02-28T00:52:32;525.25;;;447.35;;
13368;SDS011;6753;52.520;13.450;2023-02-28T00:52:44;524.22;;;448.35;;
13368;SDS011;6753;52.520;13.450;2023-02-28T00:52:55;524.25;;;448.65;;
13368;SDS011;6753;52.520;13.450;2023-02-28T00:53:05;524.70;;;449.83;;
13368;SDS011;6753;52.520;13.450;2023-02-28T00:53:16;524.63;;;448.67;;
13368;SDS011;6753;52.520;13.450;2023-02-28T00:53:27;522.63;;;445.63;;
13368;SDS011;6753;52.520;13.450;2023-02-28T00:53:38;522.95;;;444.88;;
13368;SDS011;6753;52.520;13.450;2023-02-28T00:53:50;523.40;;;444.38;;
13368;SDS011;6753;52.520;13.450;2023-02-28T00:54:00;524.13;;;444.67;;
13368;SDS011;6753;52.520;13.450;2023-02-28T00:54:11;523.35;;;443.30;;
13368;SDS011;6753;52.520;13.450;2023-02-28T00:54:22;523.73;;;443.33;;
13368;SDS011;6753;52.520;13.450;2023-02-28T00:54:33;525.17;;;443.40;;
13368;SDS011;6753;52.520;13.450;2023-02-28T00:54:44;525.58;;;442.85;;
13368;SDS011;6753;52.520;13.450;2023-02-28T00:54:55;525.27;;;442.47;;
13368;SDS011;6753;52.520;13.450;2023-02-28T00:55:06;526.17;;;443.73;;
13368;SDS011;6753;52.520;13.450;2023-02-28T00:55:18;526.88;;;447.27;;
13368;SDS011;6753;52.520;13.450;2023-02-28T00:55:29;528.70;;;448.93;;
13368;SDS011;6753;52.520;13.450;2023-02-28T00:55:40;526.72;;;449.50;;
13368;SDS011;6753;52.520;13.450;2023-02-28T00:55:51;524.67;;;449.23;;
13368;SDS011;6753;52.520;13.450;2023-02-28T00:56:02;526.15;;;449.88;;
13368;SDS011;6753;52.520;13.450;2023-02-28T00:56:13;526.55;;;449.08;;
13368;SDS011;6753;52.520;13.450;2023-02-28T00:56:24;527.33;;;448.48;;
13368;SDS011;6753;52.520;13.450;2023-02-28T00:56:35;529.00;;;449.17;;
13368;SDS011;6753;52.520;13.450;2023-02-28T00:56:46;530.35;;;449.45;;
13368;SDS011;6753;52.520;13.450;2023-02-28T00:56:57;530.67;;;450.35;;
13368;SDS011;6753;52.520;13.450;2023-02-28T00:57:08;530.72;;;449.02;;
13368;SDS011;6753;52.520;13.450;2023-02-28T00:57:19;528.60;;;447.98;;
13368;SDS011;6753;52.520;13.450;2023-02-28T00:57:29;525.40;;;447.02;;
13368;SDS011;6753;52.520;13.450;2023-02-28T00:57:40;525.43;;;447.80;;
13368;SDS011;6753;52.520;13.450;2023-02-28T00:57:51;523.17;;;446.10;;
13368;SDS011;6753;52.520;13.450;2023-02-28T00:58:03;524.08;;;446.88;;
13368;SDS011;6753;52.520;13.450;2023-02-28T00:58:13;523.97;;;447.37;;
13368;SDS011;6753;52.520;13.450;2023-02-28T00:58:25;525.33;;;447.80;;
13368;SDS011;6753;52.520;13.450;2023-02-28T00:58:36;524.75;;;447.40;;
13368;SDS011;6753;52.520;13.450;2023-02-28T00:58:47;525.95;;;447.30;;
13368;SDS011;6753;52.520;13.450;2023-02-28T00:58:58;525.70;;;446.98;;
13368;SDS011;6753;52.520;13.450;2023-02-28T00:59:08;523.70;;;445.47;;
13368;SDS011;6753;52.520;13.450;2023-02-28T00:59:19;524.15;;;445.05;;
13368;SDS011;6753;52.520;13.450;2023-02-28T00:59:31;522.20;;;444.08;;
13368;SDS011;6753;52.520;13.450;2023-02-28T00:59:42;521.75;;;444.33;;
13368;SDS011;6753;52.520;13.450;2023-02-28T00:59:52;523.20;;;445.10;;
13368;SDS011;6753;52.520;13.450;2023-02-28T01:00:04;524.75;;;445.65;;
13368;SDS011;6753;52.520;13.450;2023-02-28T01:00:16;523.20;;;444.90;;
13368;SDS011;6753;52.520;13.450;2023-02-28T01:00:27;521.97;;;443.67;;
13368;SDS011;6753;52.520;13.450;2023-02-28T01:00:38;520.75;;;442.67;;
13368;SDS011;6753;52.520;13.450;2023-02-28T01:00:49;520.13;;;442.70;;
13368;SDS011;6753;52.520;13.450;2023-02-28T01:01:04;516.60;;;441.40;;
13368;SDS011;6753;52.520;13.450;2023-02-28T01:01:14;515.88;;;440.83;;
13368;SDS011;6753;52.520;13.450;2023-02-28T01:01:25;517.70;;;442.08;;
13368;SDS011;6753;52.520;13.450;2023-02-28T01:01:36;518.90;;;442.98;;
13368;SDS011;6753;52.520;13.450;2023-02-28T01:01:47;519.30;;;443.50;;
13368;SDS011;6753;52.520;13.450;2023-02-28T01:01:58;520.88;;;443.70;;
13368;SDS011;6753;52.520;13.450;2023-02-28T01:02:08;519.95;;;443.42;;
13368;SDS011;6753;52.520;13.450;2023-02-28T01:02:19;519.47;;;443.50;;
13368;SDS011;6753;52.520;13.450;2023-02-28T01:02:30;519.13;;;442.00;;
13368;SDS011;6753;52.520;13.450;2023-02-28T01:02:41;519.25;;;440.85;;
13368;SDS011;6753;52.520;13.450;2023-02-28T01:02:53;520.97;;;441.58;;
13368;SDS011;6753;52.520;13.450;2023-02-28T01:03:04;521.50;;;441.75;;
13368;SDS011;6753;52.520;13.450;2023-02-28T01:03:15;522.90;;;442.23;;
13368;SDS011;6753;52.520;13.450;2023-02-28T01:03:26;523.17;;;441.55;;
13368;SDS011;6753;52.520;13.450;2023-02-28T01:03:37;520.57;;;440.67;;
13368;SDS011;6753;52.520;13.450;2023-02-28T01:03:48;521.00;;;441.77;;
13368;SDS011;6753;52.520;13.450;2023-02-28T01:03:59;521.83;;;442.70;;
13368;SDS011;6753;52.520;13.450;2023-02-28T01:04:10;521.95;;;443.45;;